createdAt,value
2023-01-06T00:01:23.786Z,100169.66
2023-01-06T00:03:52.298Z,100181.69
2023-01-06T00:06:20.520Z,100189.47
2023-01-06T00:08:47.882Z,100187.94
2023-01-06T00:11:15.611Z,100198.31
2023-01-06T00:13:42.989Z,100198.66
2023-01-06T00:16:12.853Z,100195.59
2023-01-06T00:18:40.623Z,100201.44
2023-01-06T00:21:08.176Z,100197.16
2023-01-06T00:23:35.910Z,100190.06
2023-01-06T00:26:04.470Z,100190.72
2023-01-06T00:28:34.414Z,100186.28
2023-01-06T00:31:07.097Z,100189.50
2023-01-06T00:33:34.941Z,100189.81
2023-01-06T00:36:02.420Z,100202.16
2023-01-06T00:38:30.966Z,100208.38
2023-01-06T00:40:58.594Z,100215.72
2023-01-06T00:43:27.691Z,100227.97
2023-01-06T00:45:55.108Z,100227.84
2023-01-06T00:48:22.734Z,100235.69
2023-01-06T00:50:50.116Z,100234.22
2023-01-06T00:53:17.622Z,100228.22
2023-01-06T00:55:45.255Z,100229.38
2023-01-06T00:58:12.658Z,100231.56
2023-01-06T01:00:40.065Z,100234.25
2023-01-06T01:03:07.788Z,100236.00
2023-01-06T01:05:35.180Z,100236.56
2023-01-06T01:08:02.556Z,100240.34
2023-01-06T01:10:30.179Z,100244.63
2023-01-06T01:12:58.524Z,100260.41
2023-01-06T01:15:25.961Z,100248.22
2023-01-06T01:17:53.558Z,100262.56
2023-01-06T01:20:20.929Z,100255.81
2023-01-06T01:22:50.576Z,100258.66
2023-01-06T01:25:18.160Z,100265.81
2023-01-06T01:27:45.480Z,100264.97
2023-01-06T01:30:12.851Z,100274.19
2023-01-06T01:32:40.520Z,100278.06
2023-01-06T01:35:08.060Z,100282.16
2023-01-06T01:37:35.578Z,100288.44
2023-01-06T01:40:03.683Z,100284.13
2023-01-06T01:42:31.631Z,100276.03
2023-01-06T01:45:02.738Z,100270.81
2023-01-06T01:47:45.262Z,100271.91
2023-01-06T01:50:17.455Z,100276.66
2023-01-06T01:52:45.686Z,100282.19
2023-01-06T01:55:13.133Z,100272.84
2023-01-06T01:57:48.507Z,100279.38
2023-01-06T02:00:16.784Z,100275.09
2023-01-06T02:02:44.666Z,100285.13
2023-01-06T02:05:13.998Z,100282.62
2023-01-06T02:07:41.512Z,100286.50
2023-01-06T02:10:15.799Z,100285.66
2023-01-06T02:12:44.000Z,100293.91
2023-01-06T02:15:25.222Z,100298.88
2023-01-06T02:18:04.667Z,100293.91
2023-01-06T02:20:56.988Z,100294.78
2023-01-06T02:23:48.119Z,100299.00
2023-01-06T02:26:24.335Z,100302.88
2023-01-06T02:29:15.172Z,100294.81
2023-01-06T02:31:42.431Z,100298.00
2023-01-06T02:34:27.336Z,100301.75
2023-01-06T02:37:05.387Z,100309.84
2023-01-06T02:39:44.421Z,100295.13
2023-01-06T02:42:24.320Z,100301.34
2023-01-06T02:45:17.633Z,100299.09
2023-01-06T02:48:10.267Z,100300.16
2023-01-06T02:50:41.273Z,100287.75
2023-01-06T02:53:21.243Z,100298.59
2023-01-06T02:55:50.227Z,100300.94
2023-01-06T02:58:35.584Z,100308.94
2023-01-06T03:01:11.941Z,100318.56
2023-01-06T03:03:41.086Z,100326.84
2023-01-06T03:06:11.024Z,100318.03
2023-01-06T03:08:38.381Z,100326.50
2023-01-06T03:11:05.830Z,100331.00
2023-01-06T03:13:56.253Z,100330.09
2023-01-06T03:16:24.140Z,100332.97
2023-01-06T03:18:51.823Z,100335.69
2023-01-06T03:21:22.671Z,100338.47
2023-01-06T03:23:50.106Z,100339.06
2023-01-06T03:26:17.803Z,100334.19
2023-01-06T03:28:45.270Z,100331.97
2023-01-06T03:31:41.827Z,100333.62
2023-01-06T03:34:17.897Z,100339.19
2023-01-06T03:37:07.796Z,100328.72
2023-01-06T03:40:05.665Z,100331.22
2023-01-06T03:42:59.226Z,100332.09
2023-01-06T03:45:36.095Z,100330.97
2023-01-06T03:48:19.279Z,100329.97
2023-01-06T03:51:16.984Z,100330.62
2023-01-06T03:54:02.270Z,100338.09
2023-01-06T03:56:34.068Z,100337.38
2023-01-06T03:59:04.117Z,100330.47
2023-01-06T04:01:32.055Z,100346.50
2023-01-06T04:03:59.931Z,100344.50
2023-01-06T04:06:27.646Z,100341.97
2023-01-06T04:08:55.083Z,100356.03
2023-01-06T04:11:42.211Z,100367.41
2023-01-06T04:14:09.651Z,100368.16
2023-01-06T04:16:38.239Z,100379.56
2023-01-06T04:19:06.579Z,100370.94
2023-01-06T04:21:33.961Z,100377.91
2023-01-06T04:24:01.664Z,100387.41
2023-01-06T04:26:29.037Z,100375.09
2023-01-06T04:28:56.578Z,100377.06
2023-01-06T04:31:24.307Z,100372.19
2023-01-06T04:33:52.045Z,100366.00
2023-01-06T04:36:20.402Z,100367.03
2023-01-06T04:38:48.972Z,100368.25
2023-01-06T04:41:16.294Z,100354.09
2023-01-06T04:43:43.803Z,100350.28
2023-01-06T04:46:11.576Z,100369.50
2023-01-06T04:48:38.988Z,100371.06
2023-01-06T04:51:07.786Z,100373.59
2023-01-06T04:53:36.323Z,100369.44
2023-01-06T04:56:08.470Z,100384.19
2023-01-06T04:58:36.458Z,100390.19
2023-01-06T05:01:05.357Z,100392.38
2023-01-06T05:03:32.836Z,100405.19
2023-01-06T05:06:04.432Z,100399.03
2023-01-06T05:08:31.960Z,100408.28
2023-01-06T05:11:04.315Z,100415.31
2023-01-06T05:13:31.749Z,100420.37
2023-01-06T05:15:59.264Z,100419.72
2023-01-06T05:18:26.939Z,100416.78
2023-01-06T05:20:54.698Z,100427.81
2023-01-06T05:23:22.106Z,100428.91
2023-01-06T05:25:53.085Z,100428.50
2023-01-06T05:28:20.569Z,100421.94
2023-01-06T05:30:47.935Z,100428.09
2023-01-06T05:33:15.748Z,100432.94
2023-01-06T05:35:43.080Z,100422.09
2023-01-06T05:38:10.440Z,100431.84
2023-01-06T05:40:38.047Z,100426.09
2023-01-06T05:43:05.406Z,100437.50
2023-01-06T05:45:32.791Z,100445.09
2023-01-06T05:48:02.243Z,100450.22
2023-01-06T05:50:29.598Z,100455.16
2023-01-06T05:52:58.734Z,100461.78
2023-01-06T05:55:26.919Z,100463.94
2023-01-06T05:57:54.406Z,100468.31
2023-01-06T06:00:21.938Z,100471.81
2023-01-06T06:02:49.622Z,100478.66
2023-01-06T06:05:16.975Z,100488.31
2023-01-06T06:07:44.317Z,100481.75
2023-01-06T06:10:11.934Z,100475.06
2023-01-06T06:12:39.291Z,100480.75
2023-01-06T06:15:07.157Z,100476.12
2023-01-06T06:17:34.812Z,100478.25
2023-01-06T06:20:03.285Z,100486.59
2023-01-06T06:22:30.629Z,100493.97
2023-01-06T06:24:58.315Z,100487.81
2023-01-06T06:27:25.654Z,100486.53
2023-01-06T06:29:53.022Z,100487.25
2023-01-06T06:32:20.769Z,100485.06
2023-01-06T06:34:48.090Z,100486.44
2023-01-06T06:37:15.525Z,100499.25
2023-01-06T06:39:43.115Z,100512.03
2023-01-06T06:42:10.464Z,100501.22
2023-01-06T06:44:37.794Z,100500.03
2023-01-06T06:47:05.539Z,100507.34
2023-01-06T06:49:32.915Z,100508.47
2023-01-06T06:52:00.273Z,100514.81
2023-01-06T06:54:27.873Z,100508.34
2023-01-06T06:56:56.972Z,100510.41
2023-01-06T06:59:24.353Z,100511.37
2023-01-06T07:01:52.345Z,100512.13
2023-01-06T07:04:19.782Z,100516.94
2023-01-06T07:06:47.184Z,100521.63
2023-01-06T07:09:14.900Z,100526.50
2023-01-06T07:11:42.241Z,100529.97
2023-01-06T07:14:09.594Z,100531.34
2023-01-06T07:16:37.250Z,100543.03
2023-01-06T07:19:04.564Z,100539.72
2023-01-06T07:21:31.982Z,100552.44
2023-01-06T07:23:59.730Z,100558.38
2023-01-06T07:26:27.067Z,100562.56
2023-01-06T07:28:54.410Z,100562.44
2023-01-06T07:31:22.137Z,100556.78
2023-01-06T07:33:49.551Z,100546.38
2023-01-06T07:36:16.881Z,100550.59
2023-01-06T07:38:44.480Z,100539.59
2023-01-06T07:41:11.831Z,100547.97
2023-01-06T07:43:39.202Z,100550.28
2023-01-06T07:46:06.952Z,100554.38
2023-01-06T07:48:34.536Z,100546.00
2023-01-06T07:51:03.289Z,100545.03
2023-01-06T07:53:31.368Z,100546.13
2023-01-06T07:55:58.737Z,100553.53
2023-01-06T07:58:26.085Z,100545.31
2023-01-06T08:00:53.730Z,100547.84
2023-01-06T08:03:21.526Z,100550.19
2023-01-06T08:05:48.960Z,100564.16
2023-01-06T08:08:16.350Z,100557.09
2023-01-06T08:10:43.932Z,100563.59
2023-01-06T08:13:11.616Z,100553.97
2023-01-06T08:15:39.350Z,100557.34
2023-01-06T08:18:07.256Z,100544.94
2023-01-06T08:20:34.714Z,100543.19
2023-01-06T08:23:02.382Z,100523.78
2023-01-06T08:25:30.052Z,100515.84
2023-01-06T08:27:58.741Z,100515.34
2023-01-06T08:30:26.233Z,100521.87
2023-01-06T08:32:57.104Z,100518.22
2023-01-06T08:35:24.573Z,100512.22
2023-01-06T08:37:52.013Z,100514.19
2023-01-06T08:40:19.641Z,100525.19
2023-01-06T08:42:47.107Z,100516.44
2023-01-06T08:45:14.511Z,100514.47
2023-01-06T08:47:42.172Z,100511.69
2023-01-06T08:50:09.700Z,100520.50
2023-01-06T08:52:37.053Z,100520.75
2023-01-06T08:55:04.878Z,100522.63
2023-01-06T08:57:32.247Z,100529.16
2023-01-06T08:59:59.598Z,100547.56
2023-01-06T09:02:29.483Z,100544.22
2023-01-06T09:04:57.426Z,100552.25
2023-01-06T09:07:24.819Z,100559.53
2023-01-06T09:09:52.440Z,100559.97
2023-01-06T09:12:19.851Z,100555.37
2023-01-06T09:14:47.176Z,100565.41
2023-01-06T09:17:14.788Z,100573.19
2023-01-06T09:19:42.196Z,100571.25
2023-01-06T09:22:09.524Z,100574.19
2023-01-06T09:24:37.228Z,100571.53
2023-01-06T09:27:04.581Z,100568.31
2023-01-06T09:29:31.937Z,100575.53
2023-01-06T09:31:59.551Z,100564.84
2023-01-06T09:34:26.933Z,100573.06
2023-01-06T09:36:54.333Z,100575.16
2023-01-06T09:39:21.971Z,100564.25
2023-01-06T09:41:58.437Z,100574.88
2023-01-06T09:44:30.194Z,100572.06
2023-01-06T09:46:58.452Z,100566.37
2023-01-06T09:49:35.862Z,100569.66
2023-01-06T09:52:27.791Z,100566.78
2023-01-06T09:55:02.111Z,100567.66
2023-01-06T09:57:33.972Z,100572.31
2023-01-06T10:00:05.309Z,100562.44
2023-01-06T10:02:39.987Z,100563.59
2023-01-06T10:05:26.414Z,100561.63
2023-01-06T10:08:03.684Z,100565.13
2023-01-06T10:10:56.329Z,100557.28
2023-01-06T10:13:38.974Z,100555.56
2023-01-06T10:16:30.938Z,100560.88
2023-01-06T10:19:13.616Z,100561.88
2023-01-06T10:22:07.671Z,100553.81
2023-01-06T10:24:51.862Z,100550.00
2023-01-06T10:27:23.985Z,100553.25
2023-01-06T10:29:51.529Z,100548.34
2023-01-06T10:32:19.179Z,100547.47
2023-01-06T10:34:46.844Z,100543.22
2023-01-06T10:37:17.073Z,100542.28
2023-01-06T10:39:44.944Z,100550.38
2023-01-06T10:42:37.493Z,100548.09
2023-01-06T10:45:05.747Z,100550.75
2023-01-06T10:47:33.232Z,100553.62
2023-01-06T10:50:00.692Z,100544.81
2023-01-06T10:52:28.320Z,100543.94
2023-01-06T10:54:58.697Z,100543.53
2023-01-06T10:57:29.765Z,100545.37
2023-01-06T11:00:12.722Z,100545.19
2023-01-06T11:02:44.517Z,100542.16
2023-01-06T11:05:17.028Z,100537.88
2023-01-06T11:07:48.722Z,100540.00
2023-01-06T11:10:52.110Z,100528.63
2023-01-06T11:13:34.605Z,100532.19
2023-01-06T11:16:03.841Z,100529.13
2023-01-06T11:18:35.150Z,100527.84
2023-01-06T11:21:16.449Z,100529.31
2023-01-06T11:23:45.210Z,100519.88
2023-01-06T11:26:12.666Z,100533.16
2023-01-06T11:28:40.499Z,100521.19
2023-01-06T11:31:13.773Z,100521.91
2023-01-06T11:34:00.626Z,100520.97
2023-01-06T11:36:30.938Z,100522.56
2023-01-06T11:39:03.224Z,100514.09
2023-01-06T11:41:37.607Z,100515.19
2023-01-06T11:44:18.281Z,100508.09
2023-01-06T11:46:52.746Z,100512.38
2023-01-06T11:49:29.089Z,100507.28
2023-01-06T11:52:02.621Z,100502.16
2023-01-06T11:54:36.690Z,100500.34
2023-01-06T11:57:16.160Z,100501.03
2023-01-06T11:59:59.045Z,100506.72
2023-01-06T12:02:48.708Z,100507.34
2023-01-06T12:05:25.343Z,100497.81
2023-01-06T12:07:52.793Z,100496.00
2023-01-06T12:10:26.499Z,100489.00
2023-01-06T12:12:53.922Z,100486.91
2023-01-06T12:15:22.448Z,100474.50
2023-01-06T12:17:52.839Z,100477.37
2023-01-06T12:20:26.181Z,100472.91
2023-01-06T12:23:14.320Z,100458.28
2023-01-06T12:25:43.188Z,100454.78
2023-01-06T12:28:29.899Z,100453.97
2023-01-06T12:30:59.065Z,100458.94
2023-01-06T12:33:30.508Z,100458.19
2023-01-06T12:36:02.440Z,100445.50
2023-01-06T12:38:54.169Z,100447.94
2023-01-06T12:41:27.412Z,100446.75
2023-01-06T12:44:29.739Z,100443.84
2023-01-06T12:47:05.434Z,100438.94
2023-01-06T12:49:58.595Z,100445.41
2023-01-06T12:52:36.647Z,100436.19
2023-01-06T12:55:05.727Z,100432.88
2023-01-06T12:57:49.704Z,100427.03
2023-01-06T13:00:32.538Z,100425.62
2023-01-06T13:03:08.772Z,100422.59
2023-01-06T13:05:57.411Z,100426.72
2023-01-06T13:08:39.777Z,100420.28
2023-01-06T13:11:26.289Z,100422.59
2023-01-06T13:14:13.132Z,100422.31
2023-01-06T13:17:04.339Z,100418.31
2023-01-06T13:19:42.527Z,100422.75
2023-01-06T13:22:12.147Z,100426.47
2023-01-06T13:24:53.384Z,100425.06
2023-01-06T13:27:56.371Z,100428.56
2023-01-06T13:30:39.619Z,100428.97
2023-01-06T13:33:25.928Z,100432.06
2023-01-06T13:36:14.991Z,100431.97
2023-01-06T13:39:04.297Z,100404.19
2023-01-06T13:41:34.203Z,100411.78
2023-01-06T13:44:01.899Z,100410.56
2023-01-06T13:46:29.327Z,100425.75
2023-01-06T13:49:02.489Z,100434.03
2023-01-06T13:51:33.414Z,100429.00
2023-01-06T13:54:02.857Z,100427.97
2023-01-06T13:56:32.079Z,100421.91
2023-01-06T13:59:22.446Z,100415.72
2023-01-06T14:01:50.326Z,100410.88
2023-01-06T14:04:29.932Z,100415.06
2023-01-06T14:06:57.573Z,100408.69
2023-01-06T14:09:25.210Z,100425.88
2023-01-06T14:11:52.644Z,100413.09
2023-01-06T14:14:28.451Z,100421.06
2023-01-06T14:16:56.988Z,100425.72
2023-01-06T14:19:25.458Z,100412.25
2023-01-06T14:21:53.978Z,100409.75
2023-01-06T14:24:25.773Z,100420.91
2023-01-06T14:27:01.246Z,100415.56
2023-01-06T14:29:43.787Z,100423.56
2023-01-06T14:32:14.070Z,100412.91
2023-01-06T14:34:43.506Z,100420.56
2023-01-06T14:37:14.419Z,100411.03
2023-01-06T14:39:42.760Z,100412.69
2023-01-06T14:42:16.047Z,100414.31
2023-01-06T14:44:46.603Z,100417.94
2023-01-06T14:47:18.350Z,100419.59
2023-01-06T14:49:56.378Z,100425.09
2023-01-06T14:52:31.450Z,100422.12
2023-01-06T14:54:59.087Z,100421.34
2023-01-06T14:57:29.312Z,100428.59
2023-01-06T15:00:16.247Z,100435.06
2023-01-06T15:02:48.135Z,100430.00
2023-01-06T15:05:22.993Z,100427.69
2023-01-06T15:08:02.328Z,100423.44
2023-01-06T15:10:32.969Z,100425.31
2023-01-06T15:13:01.067Z,100425.94
2023-01-06T15:15:30.647Z,100432.41
2023-01-06T15:17:58.587Z,100432.44
2023-01-06T15:20:34.436Z,100429.19
2023-01-06T15:23:01.920Z,100426.16
2023-01-06T15:25:29.666Z,100428.81
2023-01-06T15:27:57.561Z,100431.13
2023-01-06T15:30:26.680Z,100425.03
2023-01-06T15:32:54.571Z,100425.69
2023-01-06T15:35:26.586Z,100431.62
2023-01-06T15:38:00.155Z,100427.63
2023-01-06T15:40:27.692Z,100430.53
2023-01-06T15:42:55.347Z,100428.75
2023-01-06T15:45:31.931Z,100428.16
2023-01-06T15:48:01.714Z,100429.00
2023-01-06T15:50:29.822Z,100436.13
2023-01-06T15:53:04.056Z,100431.53
2023-01-06T15:55:32.752Z,100426.31
2023-01-06T15:58:08.372Z,100441.88
2023-01-06T16:00:48.164Z,100438.72
2023-01-06T16:03:20.552Z,100440.97
2023-01-06T16:05:51.001Z,100441.50
2023-01-06T16:08:25.532Z,100438.16
2023-01-06T16:11:11.299Z,100435.34
2023-01-06T16:13:39.907Z,100442.41
2023-01-06T16:16:09.829Z,100438.00
2023-01-06T16:18:37.451Z,100444.63
2023-01-06T16:21:15.711Z,100444.47
2023-01-06T16:23:46.555Z,100444.03
2023-01-06T16:26:23.876Z,100435.44
2023-01-06T16:28:56.571Z,100439.38
2023-01-06T16:31:32.171Z,100444.13
2023-01-06T16:34:15.758Z,100444.37
2023-01-06T16:36:43.393Z,100446.72
2023-01-06T16:39:10.760Z,100448.34
2023-01-06T16:41:38.107Z,100451.50
2023-01-06T16:44:05.801Z,100445.34
2023-01-06T16:46:33.221Z,100447.03
2023-01-06T16:49:01.759Z,100444.97
2023-01-06T16:51:29.439Z,100437.56
2023-01-06T16:53:56.795Z,100433.81
2023-01-06T16:56:24.216Z,100429.97
2023-01-06T16:58:52.992Z,100438.03
2023-01-06T17:01:21.830Z,100443.91
2023-01-06T17:03:55.417Z,100444.88
2023-01-06T17:06:24.840Z,100454.41
2023-01-06T17:08:56.994Z,100454.88
2023-01-06T17:11:25.455Z,100446.47
2023-01-06T17:14:03.678Z,100439.94
2023-01-06T17:16:31.886Z,100429.34
2023-01-06T17:19:01.011Z,100428.91
2023-01-06T17:21:36.379Z,100423.72
2023-01-06T17:24:06.764Z,100429.41
2023-01-06T17:26:34.150Z,100429.19
2023-01-06T17:29:01.746Z,100435.16
2023-01-06T17:31:34.566Z,100433.69
2023-01-06T17:34:16.009Z,100449.41
2023-01-06T17:36:45.847Z,100441.03
2023-01-06T17:39:21.509Z,100456.03
2023-01-06T17:41:49.433Z,100450.13
2023-01-06T17:44:18.596Z,100457.87
2023-01-06T17:46:46.214Z,100450.59
2023-01-06T17:49:19.867Z,100450.97
2023-01-06T17:51:47.241Z,100451.31
2023-01-06T17:54:42.515Z,100458.41
2023-01-06T17:57:18.770Z,100456.03
2023-01-06T17:59:46.572Z,100457.50
2023-01-06T18:02:46.367Z,100456.66
2023-01-06T18:05:26.116Z,100463.59
2023-01-06T18:08:05.324Z,100464.66
2023-01-06T18:10:44.062Z,100471.31
2023-01-06T18:13:13.964Z,100482.28
2023-01-06T18:15:41.604Z,100486.03
2023-01-06T18:18:24.786Z,100488.88
2023-01-06T18:21:00.635Z,100479.75
2023-01-06T18:23:28.087Z,100476.47
2023-01-06T18:25:56.683Z,100467.59
2023-01-06T18:28:24.088Z,100475.31
2023-01-06T18:30:56.503Z,100474.84
2023-01-06T18:33:24.127Z,100479.09
2023-01-06T18:35:57.218Z,100468.78
2023-01-06T18:38:26.335Z,100464.00
2023-01-06T18:40:54.331Z,100457.00
2023-01-06T18:43:30.715Z,100464.84
2023-01-06T18:46:00.488Z,100470.31
2023-01-06T18:48:27.719Z,100474.37
2023-01-06T18:50:56.133Z,100486.22
2023-01-06T18:53:43.328Z,100486.22
2023-01-06T18:56:16.152Z,100485.50
2023-01-06T18:58:49.676Z,100486.62
2023-01-06T19:01:42.442Z,100488.84
2023-01-06T19:04:24.878Z,100473.22
2023-01-06T19:06:54.288Z,100488.59
2023-01-06T19:09:23.526Z,100483.81
2023-01-06T19:12:15.335Z,100485.78
2023-01-06T19:14:44.069Z,100491.09
2023-01-06T19:17:31.343Z,100479.12
2023-01-06T19:20:00.706Z,100480.94
2023-01-06T19:22:29.370Z,100474.37
2023-01-06T19:25:15.625Z,100461.34
2023-01-06T19:27:57.215Z,100464.06
2023-01-06T19:30:43.909Z,100461.78
2023-01-06T19:33:23.673Z,100456.91
2023-01-06T19:36:00.186Z,100452.31
2023-01-06T19:38:29.834Z,100455.66
2023-01-06T19:40:58.361Z,100451.78
2023-01-06T19:43:32.853Z,100451.97
2023-01-06T19:46:22.785Z,100445.56
2023-01-06T19:48:50.248Z,100444.37
2023-01-06T19:51:23.187Z,100444.00
2023-01-06T19:53:54.822Z,100447.00
2023-01-06T19:56:28.491Z,100446.28
2023-01-06T19:59:03.824Z,100444.50
2023-01-06T20:01:32.047Z,100440.81
2023-01-06T20:03:59.931Z,100428.31
2023-01-06T20:06:27.328Z,100424.88
2023-01-06T20:08:54.695Z,100429.03
2023-01-06T20:11:23.335Z,100436.72
2023-01-06T20:13:50.891Z,100446.84
2023-01-06T20:16:18.342Z,100449.12
2023-01-06T20:18:46.126Z,100452.19
2023-01-06T20:21:13.502Z,100451.16
2023-01-06T20:23:40.997Z,100452.84
2023-01-06T20:26:08.624Z,100458.31
2023-01-06T20:28:36.028Z,100457.59
2023-01-06T20:31:03.396Z,100452.59
2023-01-06T20:33:30.987Z,100450.22
2023-01-06T20:35:58.455Z,100451.50
2023-01-06T20:38:25.839Z,100451.34
2023-01-06T20:40:53.469Z,100446.53
2023-01-06T20:43:20.851Z,100456.38
2023-01-06T20:45:48.313Z,100453.00
2023-01-06T20:48:16.088Z,100456.41
2023-01-06T20:50:43.664Z,100449.22
2023-01-06T20:53:11.064Z,100453.38
2023-01-06T20:55:38.678Z,100453.47
2023-01-06T20:58:06.099Z,100456.91
2023-01-06T21:00:33.644Z,100457.34
2023-01-06T21:03:01.371Z,100464.22
2023-01-06T21:05:28.764Z,100463.87
2023-01-06T21:07:56.181Z,100459.22
2023-01-06T21:10:23.964Z,100462.56
2023-01-06T21:12:51.471Z,100459.94
2023-01-06T21:15:19.152Z,100447.09
2023-01-06T21:17:46.778Z,100444.13
2023-01-06T21:20:14.126Z,100444.00
2023-01-06T21:22:41.492Z,100441.19
2023-01-06T21:25:09.491Z,100443.03
2023-01-06T21:27:36.867Z,100441.56
2023-01-06T21:30:04.571Z,100443.13
2023-01-06T21:32:32.225Z,100455.09
2023-01-06T21:34:59.620Z,100451.88
2023-01-06T21:37:27.012Z,100453.56
2023-01-06T21:39:54.745Z,100443.81
2023-01-06T21:42:40.830Z,100460.44
2023-01-06T21:45:08.580Z,100478.50
2023-01-06T21:47:35.832Z,100465.53
2023-01-06T21:50:03.404Z,100458.59
2023-01-06T21:52:31.974Z,100457.06
2023-01-06T21:54:59.286Z,100455.28
2023-01-06T21:57:26.646Z,100450.16
2023-01-06T21:59:54.282Z,100452.44
2023-01-06T22:02:21.843Z,100456.84
2023-01-06T22:04:51.636Z,100457.41
2023-01-06T22:07:21.106Z,100449.31
2023-01-06T22:09:48.539Z,100440.37
2023-01-06T22:12:16.202Z,100435.28
2023-01-06T22:14:43.829Z,100433.19
2023-01-06T22:17:11.513Z,100438.13
2023-01-06T22:19:39.275Z,100438.78
2023-01-06T22:22:06.653Z,100434.41
2023-01-06T22:24:34.071Z,100435.94
2023-01-06T22:27:01.819Z,100432.88
2023-01-06T22:29:29.200Z,100434.16
2023-01-06T22:32:06.046Z,100435.97
2023-01-06T22:34:33.817Z,100432.94
2023-01-06T22:37:01.178Z,100423.87
2023-01-06T22:39:28.560Z,100424.47
2023-01-06T22:41:56.255Z,100431.22
2023-01-06T22:44:23.629Z,100436.69
2023-01-06T22:46:50.989Z,100434.94
2023-01-06T22:49:18.668Z,100435.91
2023-01-06T22:51:46.030Z,100427.31
2023-01-06T22:54:13.458Z,100430.66
2023-01-06T22:56:41.923Z,100425.31
2023-01-06T22:59:09.661Z,100421.22
2023-01-06T23:01:37.066Z,100423.78
2023-01-06T23:04:04.798Z,100418.44
2023-01-06T23:06:32.242Z,100417.91
2023-01-06T23:09:01.065Z,100420.41
2023-01-06T23:11:29.847Z,100420.41
2023-01-06T23:13:57.536Z,100422.25
2023-01-06T23:16:26.528Z,100413.66
2023-01-06T23:18:54.622Z,100422.72
2023-01-06T23:21:23.356Z,100425.47
2023-01-06T23:23:50.967Z,100430.31
2023-01-06T23:26:23.327Z,100429.78
2023-01-06T23:28:51.404Z,100427.50
2023-01-06T23:31:22.444Z,100426.66
2023-01-06T23:33:52.375Z,100417.03
2023-01-06T23:36:20.121Z,100418.59
2023-01-06T23:38:47.599Z,100420.88
2023-01-06T23:41:19.096Z,100423.22
2023-01-06T23:43:46.980Z,100417.03
2023-01-06T23:46:19.047Z,100416.06
2023-01-06T23:48:46.871Z,100420.69
2023-01-06T23:51:14.471Z,100422.09
2023-01-06T23:53:42.031Z,100424.28
2023-01-06T23:56:14.178Z,100427.22
2023-01-06T23:58:43.096Z,100432.78
